Time;durP1;ratioP1;P1;durP2;ratioP2;P2;SDS_P1;SDS_P2;PMS_P1;PMS_P2;Temp;Humidity;BMP_temperature;BMP_pressure;BME280_temperature;BME280_humidity;BME280_pressure;Samples;Min_cycle;Max_cycle;Signal;HPM_P1;HPM_P2
2022/12/09 00:01:49;;;;;;;13.00;7.18;;;-3.30;98.00;;;;;;5047414;28;20037;-66
2022/12/09 00:04:16;;;;;;;11.15;6.95;;;-3.30;98.00;;;;;;5045968;28;20048;-65
2022/12/09 00:06:41;;;;;;;12.23;7.47;;;-3.30;98.00;;;;;;5043889;28;20051;-65
2022/12/09 00:09:12;;;;;;;12.75;7.57;;;-3.40;98.00;;;;;;5048673;28;20036;-65
2022/12/09 00:11:37;;;;;;;12.38;7.13;;;-3.50;98.00;;;;;;5051218;28;20044;-66
2022/12/09 00:14:03;;;;;;;12.07;6.32;;;-3.50;98.00;;;;;;5053303;28;20032;-66
2022/12/09 00:16:29;;;;;;;10.88;6.68;;;-3.50;98.00;;;;;;5049280;28;20028;-66
2022/12/09 00:18:56;;;;;;;10.00;6.40;;;-3.60;98.00;;;;;;5044120;28;20029;-65
2022/12/09 00:21:32;;;;;;;10.90;6.72;;;-3.60;98.00;;;;;;5053300;28;20376;-66
2022/12/09 00:24:06;;;;;;;11.10;6.40;;;-3.60;98.00;;;;;;5052833;28;20044;-66
2022/12/09 00:26:32;;;;;;;10.60;6.70;;;-3.60;98.00;;;;;;5047233;28;20060;-65
2022/12/09 00:28:58;;;;;;;10.50;6.50;;;-3.40;98.00;;;;;;5057354;28;20059;-66
2022/12/09 00:31:28;;;;;;;11.38;5.85;;;-3.40;98.00;;;;;;5046873;28;20029;-65
2022/12/09 00:33:59;;;;;;;11.23;6.65;;;-3.40;98.00;;;;;;5038847;28;20025;-66
2022/12/09 00:36:26;;;;;;;9.70;5.95;;;-3.40;98.00;;;;;;5044529;28;20048;-65
2022/12/09 00:38:54;;;;;;;11.32;6.07;;;-3.50;98.00;;;;;;5054022;28;20025;-65
2022/12/09 00:41:20;;;;;;;10.20;5.82;;;-3.40;98.00;;;;;;5040566;28;20115;-66
2022/12/09 00:43:46;;;;;;;11.20;5.55;;;-3.40;98.00;;;;;;5044321;28;20083;-65
2022/12/09 00:46:13;;;;;;;11.00;6.40;;;-3.30;98.00;;;;;;5040357;28;20025;-65
2022/12/09 00:48:39;;;;;;;11.15;6.72;;;-3.10;98.00;;;;;;5052661;28;20064;-66
2022/12/09 00:51:07;;;;;;;11.82;7.15;;;-2.80;98.00;;;;;;5046061;28;20032;-65
2022/12/09 00:53:33;;;;;;;11.40;6.72;;;-2.90;98.00;;;;;;5053096;28;20035;-65
2022/12/09 00:55:59;;;;;;;10.55;6.53;;;-3.00;98.00;;;;;;5039912;28;20026;-65
2022/12/09 00:58:25;;;;;;;11.25;6.40;;;-3.20;98.00;;;;;;5054323;28;20040;-65
2022/12/09 01:00:52;;;;;;;10.52;6.63;;;-3.40;98.00;;;;;;5038701;28;20026;-66
2022/12/09 01:03:18;;;;;;;12.40;7.97;;;-3.50;98.00;;;;;;5038597;28;20072;-65
2022/12/09 01:05:44;;;;;;;14.95;9.00;;;-3.70;98.00;;;;;;5051232;28;20094;-65
2022/12/09 01:08:11;;;;;;;14.30;7.40;;;-3.90;98.00;;;;;;5047771;28;20040;-65
2022/12/09 01:10:38;;;;;;;11.82;7.63;;;-4.00;98.00;;;;;;5048738;28;20092;-65
2022/12/09 01:13:03;;;;;;;14.70;7.93;;;-4.00;98.00;;;;;;5048079;28;20029;-65
2022/12/09 01:15:29;;;;;;;15.20;8.05;;;-3.90;98.00;;;;;;5038834;28;20314;-65
2022/12/09 01:17:55;;;;;;;11.48;7.32;;;-4.10;98.00;;;;;;5038007;28;20032;-65
2022/12/09 01:20:21;;;;;;;13.93;7.13;;;-4.20;98.00;;;;;;5044048;28;20028;-65
2022/12/09 01:22:47;;;;;;;11.40;7.10;;;-4.30;98.00;;;;;;5051235;28;20025;-65
2022/12/09 01:25:13;;;;;;;11.60;6.70;;;-4.50;97.80;;;;;;5037192;28;20029;-65
2022/12/09 01:27:38;;;;;;;13.32;7.93;;;-4.60;96.30;;;;;;5043985;28;20030;-65
2022/12/09 01:30:07;;;;;;;15.52;8.95;;;-4.50;96.90;;;;;;5048003;28;20348;-65
2022/12/09 01:32:32;;;;;;;18.63;9.63;;;-4.60;96.50;;;;;;5052477;28;20021;-65
2022/12/09 01:35:01;;;;;;;13.88;8.07;;;-4.60;94.90;;;;;;5050626;28;20025;-65
2022/12/09 01:37:27;;;;;;;12.38;7.57;;;-4.60;95.70;;;;;;5053488;28;20038;-65
2022/12/09 01:39:53;;;;;;;13.93;7.32;;;-4.70;95.60;;;;;;5043829;28;20330;-65
2022/12/09 01:42:22;;;;;;;16.40;8.93;;;-4.60;93.80;;;;;;5050291;28;20037;-65
2022/12/09 01:45:18;;;;;;;32.83;13.48;;;-4.60;94.70;;;;;;5045045;28;20059;-65
2022/12/09 01:47:50;;;;;;;42.03;16.80;;;-4.80;95.10;;;;;;5072055;28;20100;-65
2022/12/09 01:50:17;;;;;;;37.75;15.25;;;-4.70;93.90;;;;;;5037047;28;20059;-65
2022/12/09 01:52:44;;;;;;;28.33;12.38;;;-4.80;95.50;;;;;;5043245;28;20017;-65
2022/12/09 01:55:10;;;;;;;26.98;12.80;;;-4.70;93.80;;;;;;5042601;28;20045;-65
2022/12/09 01:57:36;;;;;;;22.98;11.77;;;-4.70;93.80;;;;;;5046588;28;20026;-64
2022/12/09 02:00:03;;;;;;;22.58;10.77;;;-4.70;94.80;;;;;;5053299;28;20052;-64
2022/12/09 02:02:31;;;;;;;20.27;10.52;;;-4.70;94.40;;;;;;5038527;28;20037;-65
2022/12/09 02:04:57;;;;;;;22.17;12.00;;;-4.70;93.30;;;;;;5040216;28;20025;-67
2022/12/09 02:07:23;;;;;;;15.93;9.30;;;-4.70;94.90;;;;;;5037053;28;20033;-67
2022/12/09 02:09:56;;;;;;;17.73;9.80;;;-4.70;93.70;;;;;;5039721;28;20048;-66
2022/12/09 02:12:31;;;;;;;16.60;9.20;;;-4.70;93.00;;;;;;5037012;28;20033;-66
2022/12/09 02:15:22;;;;;;;18.40;9.98;;;-4.70;93.80;;;;;;5045363;28;20025;-65
2022/12/09 02:17:58;;;;;;;20.05;11.23;;;-4.70;94.40;;;;;;5063503;28;20028;-65
2022/12/09 02:20:53;;;;;;;21.05;11.45;;;-4.80;94.50;;;;;;5041182;28;21810;-65
2022/12/09 02:23:23;;;;;;;15.32;9.25;;;-5.00;93.60;;;;;;5065049;28;20045;-65
2022/12/09 02:26:14;;;;;;;17.58;9.85;;;-4.90;92.30;;;;;;5043106;28;20050;-65
2022/12/09 02:29:13;;;;;;;18.95;10.80;;;-4.90;92.70;;;;;;5050964;28;20092;-66
2022/12/09 02:31:50;;;;;;;21.77;12.68;;;-5.00;92.30;;;;;;5040597;28;20026;-65
2022/12/09 02:34:21;;;;;;;17.48;9.88;;;-4.90;90.90;;;;;;5041405;28;20029;-65
2022/12/09 02:37:09;;;;;;;25.23;12.98;;;-4.90;90.50;;;;;;5043821;28;20037;-65
2022/12/09 02:39:41;;;;;;;19.98;11.15;;;-4.80;91.70;;;;;;5042534;28;20036;-65
2022/12/09 02:42:10;;;;;;;16.85;10.02;;;-4.90;91.70;;;;;;5036060;28;20511;-65
2022/12/09 02:44:37;;;;;;;18.92;10.52;;;-4.80;89.80;;;;;;5048583;28;20028;-65
2022/12/09 02:47:05;;;;;;;19.92;10.35;;;-4.50;90.00;;;;;;5039604;28;20036;-65
2022/12/09 02:49:33;;;;;;;18.92;10.32;;;-4.30;91.50;;;;;;5036612;28;20030;-65
2022/12/09 02:52:01;;;;;;;19.95;11.25;;;-4.20;93.40;;;;;;5038541;28;20022;-65
2022/12/09 02:54:30;;;;;;;19.33;11.27;;;-4.30;94.00;;;;;;5041714;28;20021;-65
2022/12/09 02:56:59;;;;;;;21.70;12.95;;;-4.40;92.90;;;;;;5036810;28;20032;-65
2022/12/09 02:59:25;;;;;;;19.85;11.48;;;-4.40;93.40;;;;;;5036356;28;20027;-65
2022/12/09 03:02:12;;;;;;;16.30;10.85;;;-4.50;93.30;;;;;;5054943;28;20112;-66
2022/12/09 03:04:41;;;;;;;18.90;10.85;;;-4.30;91.90;;;;;;5050700;28;20029;-65
2022/12/09 03:07:23;;;;;;;22.38;13.45;;;-4.10;92.80;;;;;;5044238;28;20372;-65
2022/12/09 03:10:00;;;;;;;18.33;10.32;;;-4.20;93.60;;;;;;5053203;28;20413;-65
2022/12/09 03:12:31;;;;;;;20.20;11.52;;;-4.30;94.30;;;;;;5042847;28;20309;-65
2022/12/09 03:14:59;;;;;;;18.15;10.65;;;-4.30;93.90;;;;;;5046785;28;20028;-66
2022/12/09 03:17:36;;;;;;;24.48;13.38;;;-4.40;93.60;;;;;;5054052;28;20020;-65
2022/12/09 03:20:09;;;;;;;20.90;11.02;;;-4.40;94.00;;;;;;5042459;28;20027;-65
2022/12/09 03:22:38;;;;;;;17.45;10.85;;;-4.40;92.60;;;;;;5049170;28;20405;-65
2022/12/09 03:25:16;;;;;;;22.00;13.18;;;-4.40;93.20;;;;;;5043888;28;20032;-65
2022/12/09 03:27:55;;;;;;;21.17;12.70;;;-4.30;92.60;;;;;;5047953;28;20067;-65
2022/12/09 03:30:22;;;;;;;25.40;14.30;;;-4.20;92.90;;;;;;5043069;28;20033;-65
2022/12/09 03:32:49;;;;;;;29.55;15.95;;;-4.20;93.40;;;;;;5051366;28;20033;-65
2022/12/09 03:35:25;;;;;;;25.00;14.32;;;-4.00;92.30;;;;;;5045081;28;20070;-65
2022/12/09 03:37:52;;;;;;;26.08;15.55;;;-3.70;92.50;;;;;;5047384;28;20021;-65
2022/12/09 03:40:25;;;;;;;24.98;14.73;;;-3.40;94.40;;;;;;5048504;28;20422;-65
2022/12/09 03:43:04;;;;;;;23.85;14.48;;;-3.10;96.40;;;;;;5051233;28;20029;-65
2022/12/09 03:45:31;;;;;;;21.60;12.98;;;-2.90;98.00;;;;;;5049758;28;20036;-65
2022/12/09 03:47:56;;;;;;;21.67;11.95;;;-3.10;98.00;;;;;;5053173;28;20009;-65
2022/12/09 03:50:26;;;;;;;23.27;14.50;;;-3.30;98.00;;;;;;5043809;28;20033;-65
2022/12/09 03:53:14;;;;;;;24.77;13.13;;;-3.50;98.00;;;;;;5036915;28;20414;-65
2022/12/09 03:55:50;;;;;;;26.02;15.35;;;-3.50;98.00;;;;;;5042805;28;20021;-65
2022/12/09 03:58:16;;;;;;;21.85;13.25;;;-3.60;98.00;;;;;;5054532;28;20052;-66
2022/12/09 04:00:44;;;;;;;21.05;12.18;;;-3.60;98.00;;;;;;5045403;28;20079;-64
2022/12/09 04:03:12;;;;;;;20.33;12.75;;;-3.60;98.00;;;;;;5050127;28;20302;-65
2022/12/09 04:05:37;;;;;;;19.33;12.40;;;-3.50;98.00;;;;;;5040457;28;20425;-65
2022/12/09 04:08:03;;;;;;;19.67;12.02;;;-3.50;98.00;;;;;;5052873;28;20036;-66
2022/12/09 04:10:29;;;;;;;20.27;12.27;;;-3.40;98.00;;;;;;5051544;28;20134;-65
2022/12/09 04:12:54;;;;;;;22.42;12.80;;;-3.40;98.00;;;;;;5049051;28;20025;-65
2022/12/09 04:15:20;;;;;;;18.23;11.95;;;-3.40;98.00;;;;;;5053733;28;20021;-65
2022/12/09 04:17:46;;;;;;;16.20;10.50;;;-3.30;98.00;;;;;;5057023;28;20059;-65
2022/12/09 04:20:12;;;;;;;17.88;10.88;;;-3.10;98.00;;;;;;5048719;28;20029;-65
2022/12/09 04:22:37;;;;;;;21.08;12.80;;;-3.10;98.00;;;;;;5049109;28;20025;-65
2022/12/09 04:25:03;;;;;;;21.85;12.65;;;-3.10;98.00;;;;;;5040287;28;20100;-66
2022/12/09 04:27:29;;;;;;;21.08;12.30;;;-3.20;98.00;;;;;;5046481;28;20369;-66
2022/12/09 04:29:54;;;;;;;21.92;12.30;;;-3.30;98.00;;;;;;5046399;28;20438;-65
2022/12/09 04:32:21;;;;;;;22.15;12.55;;;-3.40;98.00;;;;;;5040950;28;20426;-65
2022/12/09 04:34:46;;;;;;;23.65;12.73;;;-3.40;98.00;;;;;;5041942;28;20100;-65
2022/12/09 04:37:12;;;;;;;20.40;12.75;;;-3.50;98.00;;;;;;5047041;28;20120;-66
2022/12/09 04:39:38;;;;;;;20.35;12.60;;;-3.50;98.00;;;;;;5046326;28;20025;-65
2022/12/09 04:42:03;;;;;;;19.67;11.70;;;-3.60;98.00;;;;;;5052363;28;20437;-65
2022/12/09 04:44:29;;;;;;;20.45;12.98;;;-3.60;97.30;;;;;;5053044;28;20033;-66
2022/12/09 04:46:54;;;;;;;23.02;13.80;;;-3.40;97.70;;;;;;5044784;28;20056;-65
2022/12/09 04:49:20;;;;;;;22.10;13.90;;;-3.50;97.70;;;;;;5056532;28;20032;-65
2022/12/09 04:51:45;;;;;;;23.23;14.13;;;-3.50;97.30;;;;;;5048587;28;20115;-65
2022/12/09 04:54:12;;;;;;;24.15;14.15;;;-3.30;96.70;;;;;;5047498;28;20452;-64
2022/12/09 04:56:38;;;;;;;20.60;12.93;;;-3.20;98.00;;;;;;5042641;28;20044;-64
2022/12/09 04:59:04;;;;;;;23.48;14.90;;;-3.10;98.00;;;;;;5045176;28;20029;-67
2022/12/09 05:01:29;;;;;;;24.17;13.77;;;-2.90;98.00;;;;;;5056292;28;20037;-66
2022/12/09 05:03:55;;;;;;;24.10;14.55;;;-2.90;98.00;;;;;;5058226;28;20024;-66
2022/12/09 05:06:24;;;;;;;23.27;13.55;;;-2.80;98.00;;;;;;5051201;28;20037;-66
2022/12/09 05:08:50;;;;;;;25.38;16.33;;;-2.80;98.00;;;;;;5054237;28;20032;-67
2022/12/09 05:11:18;;;;;;;34.83;20.73;;;-2.80;98.00;;;;;;5051703;28;20032;-67
2022/12/09 05:13:44;;;;;;;33.97;18.85;;;-2.80;98.00;;;;;;5055027;28;20090;-66
2022/12/09 05:16:12;;;;;;;34.42;20.58;;;-2.80;98.00;;;;;;5046559;28;20356;-66
2022/12/09 05:18:38;;;;;;;48.35;25.83;;;-2.80;98.00;;;;;;5051093;28;20028;-65
2022/12/09 05:21:12;;;;;;;44.95;25.55;;;-2.80;98.00;;;;;;5054759;28;20029;-66
2022/12/09 05:23:38;;;;;;;35.85;19.80;;;-2.80;98.00;;;;;;5047845;28;20061;-66
2022/12/09 05:26:06;;;;;;;38.63;20.75;;;-2.80;98.00;;;;;;5048004;28;20384;-66
2022/12/09 05:28:32;;;;;;;33.20;18.65;;;-2.70;98.00;;;;;;5055406;28;20033;-65
2022/12/09 05:31:19;;;;;;;32.60;18.17;;;-2.60;98.00;;;;;;5041203;28;20033;-65
2022/12/09 05:33:48;;;;;;;28.83;16.25;;;-2.70;98.00;;;;;;5056200;28;20040;-65
2022/12/09 05:36:17;;;;;;;24.50;15.07;;;-2.60;98.00;;;;;;5051168;28;20040;-66
2022/12/09 05:38:42;;;;;;;25.45;15.30;;;-2.60;98.00;;;;;;5037198;28;20453;-65
2022/12/09 05:41:08;;;;;;;25.80;15.05;;;-2.50;98.00;;;;;;5052067;28;20064;-66
2022/12/09 05:43:35;;;;;;;27.75;16.45;;;-2.40;98.00;;;;;;5047803;28;20444;-66
2022/12/09 05:46:01;;;;;;;25.33;15.45;;;-2.30;98.00;;;;;;5045085;28;20025;-66
2022/12/09 05:48:27;;;;;;;26.42;15.52;;;-2.30;98.00;;;;;;5037934;28;20374;-66
2022/12/09 05:51:01;;;;;;;28.48;17.80;;;-2.30;98.00;;;;;;5044863;28;20033;-66
2022/12/09 05:53:28;;;;;;;35.72;19.50;;;-2.20;98.00;;;;;;5050020;28;20068;-66
2022/12/09 05:55:54;;;;;;;35.63;21.27;;;-2.20;98.00;;;;;;5053566;28;20020;-66
2022/12/09 05:58:19;;;;;;;34.20;19.85;;;-2.30;98.00;;;;;;5053756;28;20032;-65
2022/12/09 06:00:45;;;;;;;31.75;19.40;;;-2.30;98.00;;;;;;5052294;28;20029;-65
2022/12/09 06:03:11;;;;;;;36.38;19.50;;;-2.20;98.00;;;;;;5056199;28;20037;-66
2022/12/09 06:05:37;;;;;;;30.05;18.52;;;-2.10;98.00;;;;;;5044366;28;20044;-66
2022/12/09 06:08:04;;;;;;;26.42;16.85;;;-2.10;98.00;;;;;;5054975;28;20029;-66
2022/12/09 06:10:29;;;;;;;32.03;19.13;;;-2.20;98.00;;;;;;5054650;28;20029;-66
2022/12/09 06:12:56;;;;;;;31.10;18.85;;;-2.00;98.00;;;;;;5047312;28;20410;-66
2022/12/09 06:15:22;;;;;;;65.70;31.70;;;-2.10;98.00;;;;;;5054374;28;20338;-66
2022/12/09 06:17:48;;;;;;;47.28;25.58;;;-2.10;98.00;;;;;;5038367;28;20071;-66
2022/12/09 06:20:14;;;;;;;36.42;19.50;;;-2.10;98.00;;;;;;5036943;28;20030;-66
2022/12/09 06:22:39;;;;;;;30.67;18.33;;;-2.10;98.00;;;;;;5037239;28;20025;-65
2022/12/09 06:25:05;;;;;;;33.40;18.92;;;-2.10;98.00;;;;;;5036312;28;20037;-66
2022/12/09 06:27:31;;;;;;;30.58;17.55;;;-2.10;98.00;;;;;;5046129;28;20402;-66
2022/12/09 06:30:01;;;;;;;24.80;15.90;;;-2.10;98.00;;;;;;5055700;28;20044;-65
2022/12/09 06:32:27;;;;;;;33.05;20.83;;;-2.00;98.00;;;;;;5042821;28;20342;-66
2022/12/09 06:34:53;;;;;;;31.90;19.65;;;-1.90;98.00;;;;;;5050968;28;20071;-66
2022/12/09 06:37:18;;;;;;;29.83;19.98;;;-2.00;98.00;;;;;;5044196;28;20414;-66
2022/12/09 06:39:44;;;;;;;51.03;27.50;;;-2.00;98.00;;;;;;5037174;28;20017;-65
2022/12/09 06:42:09;;;;;;;37.42;23.02;;;-2.10;98.00;;;;;;5036641;28;20025;-66
2022/12/09 06:44:36;;;;;;;33.33;18.88;;;-2.10;98.00;;;;;;5044863;28;20025;-66
2022/12/09 06:47:01;;;;;;;36.50;21.33;;;-2.10;98.00;;;;;;5044610;28;20021;-66
2022/12/09 06:49:27;;;;;;;35.05;20.80;;;-2.20;98.00;;;;;;5056225;28;20044;-66
2022/12/09 06:51:52;;;;;;;30.83;17.98;;;-2.20;98.00;;;;;;5046782;28;20021;-66
2022/12/09 06:54:18;;;;;;;32.30;19.52;;;-2.20;98.00;;;;;;5055277;28;20029;-66
2022/12/09 06:56:44;;;;;;;35.20;20.40;;;-2.20;98.00;;;;;;5050969;28;20076;-66
2022/12/09 06:59:10;;;;;;;38.20;20.98;;;-2.10;98.00;;;;;;5054051;28;20050;-66
2022/12/09 07:01:36;;;;;;;34.78;21.15;;;-2.10;98.00;;;;;;5043723;28;20033;-66
2022/12/09 07:04:03;;;;;;;36.20;21.45;;;-2.10;98.00;;;;;;5050295;28;20039;-66
2022/12/09 07:06:35;;;;;;;38.78;23.95;;;-2.20;98.00;;;;;;5039945;28;20031;-66
2022/12/09 07:09:09;;;;;;;34.58;21.00;;;-2.20;98.00;;;;;;5047647;28;20095;-66
2022/12/09 07:11:35;;;;;;;31.63;20.10;;;-2.30;98.00;;;;;;5050744;28;20038;-66
2022/12/09 07:14:01;;;;;;;26.17;17.92;;;-2.20;98.00;;;;;;5053497;28;20307;-66
2022/12/09 07:16:27;;;;;;;32.60;20.17;;;-2.30;98.00;;;;;;5055606;28;20122;-66
2022/12/09 07:18:53;;;;;;;32.83;20.52;;;-2.20;98.00;;;;;;5055954;28;20418;-66
2022/12/09 07:21:20;;;;;;;29.77;19.58;;;-2.20;98.00;;;;;;5055352;28;20039;-66
2022/12/09 07:23:49;;;;;;;33.33;21.33;;;-2.20;98.00;;;;;;5055659;28;20362;-66
2022/12/09 07:26:15;;;;;;;38.88;22.33;;;-2.20;98.00;;;;;;5041689;28;20053;-66
2022/12/09 07:28:42;;;;;;;39.65;21.90;;;-2.30;98.00;;;;;;5052079;28;20354;-66
2022/12/09 07:31:22;;;;;;;41.90;23.38;;;-2.30;98.00;;;;;;5054729;28;20033;-66
2022/12/09 07:33:48;;;;;;;53.35;23.15;;;-2.20;98.00;;;;;;5052539;28;20128;-66
2022/12/09 07:36:14;;;;;;;43.15;24.02;;;-2.20;98.00;;;;;;5045773;28;20032;-65
2022/12/09 07:38:40;;;;;;;36.85;22.13;;;-2.10;98.00;;;;;;5038716;28;20033;-66
2022/12/09 07:41:08;;;;;;;52.83;25.20;;;-2.10;98.00;;;;;;5040347;28;20032;-65
2022/12/09 07:43:34;;;;;;;39.35;24.05;;;-2.10;98.00;;;;;;5052078;28;20036;-65
2022/12/09 07:46:07;;;;;;;36.58;22.13;;;-2.10;98.00;;;;;;5046252;28;20057;-65
2022/12/09 07:48:35;;;;;;;33.33;21.35;;;-2.10;98.00;;;;;;5050770;28;20045;-65
2022/12/09 07:51:02;;;;;;;34.97;22.38;;;-2.00;98.00;;;;;;5052809;28;20032;-65
2022/12/09 07:53:28;;;;;;;35.63;22.83;;;-1.90;98.00;;;;;;5051504;28;20329;-67
2022/12/09 07:55:54;;;;;;;35.50;21.73;;;-1.90;98.00;;;;;;5048270;28;20025;-67
2022/12/09 07:58:20;;;;;;;34.00;21.33;;;-2.00;98.00;;;;;;5048492;28;20025;-66
2022/12/09 08:00:45;;;;;;;34.03;22.02;;;-2.00;98.00;;;;;;5039407;28;20487;-66
2022/12/09 08:03:12;;;;;;;33.65;22.25;;;-1.90;98.00;;;;;;5054378;28;20037;-66
2022/12/09 08:05:48;;;;;;;36.70;23.15;;;-1.90;98.00;;;;;;5041260;28;20318;-66
2022/12/09 08:08:14;;;;;;;35.88;24.17;;;-1.90;98.00;;;;;;5037319;28;20032;-66
2022/12/09 08:10:40;;;;;;;31.80;19.58;;;-1.90;98.00;;;;;;5041553;28;20030;-66
2022/12/09 08:13:06;;;;;;;29.23;19.77;;;-2.00;98.00;;;;;;5049896;28;20029;-65
2022/12/09 08:15:31;;;;;;;28.63;19.85;;;-2.00;98.00;;;;;;5054755;28;20021;-66
2022/12/09 08:18:00;;;;;;;31.90;20.67;;;-2.00;98.00;;;;;;5044468;28;20039;-66
2022/12/09 08:20:26;;;;;;;30.13;18.42;;;-1.90;98.00;;;;;;5051982;28;20076;-66
2022/12/09 08:22:51;;;;;;;27.17;17.58;;;-1.90;98.00;;;;;;5055054;28;20100;-64
2022/12/09 08:25:17;;;;;;;25.58;16.70;;;-1.90;98.00;;;;;;5046215;28;20396;-65
2022/12/09 08:27:43;;;;;;;27.10;17.88;;;-2.00;98.00;;;;;;5042461;28;20024;-65
2022/12/09 08:30:09;;;;;;;26.30;16.70;;;-2.00;98.00;;;;;;5046932;28;20022;-64
2022/12/09 08:32:34;;;;;;;27.52;16.88;;;-1.90;98.00;;;;;;5042785;28;20029;-66
2022/12/09 08:35:00;;;;;;;36.45;21.33;;;-1.90;98.00;;;;;;5040161;28;20037;-65
2022/12/09 08:37:28;;;;;;;29.15;17.80;;;-1.90;98.00;;;;;;5049310;28;20032;-65
2022/12/09 08:39:54;;;;;;;29.17;17.90;;;-1.80;98.00;;;;;;5055322;28;20075;-65
2022/12/09 08:42:19;;;;;;;35.97;19.63;;;-1.60;98.00;;;;;;5043004;28;20048;-65
2022/12/09 08:44:45;;;;;;;34.15;18.55;;;-1.60;98.00;;;;;;5037358;28;20025;-65
2022/12/09 08:47:11;;;;;;;31.17;18.45;;;-1.50;98.00;;;;;;5038349;28;20033;-65
2022/12/09 08:49:36;;;;;;;33.00;20.60;;;-1.40;98.00;;;;;;5038795;28;20067;-65
2022/12/09 08:52:02;;;;;;;33.00;19.40;;;-1.20;98.00;;;;;;5038657;28;20083;-65
2022/12/09 08:54:28;;;;;;;31.05;18.90;;;-1.10;98.00;;;;;;5038622;28;20422;-65
2022/12/09 08:56:55;;;;;;;31.42;20.00;;;-0.90;98.00;;;;;;5041328;28;20028;-65
2022/12/09 08:59:21;;;;;;;34.15;21.00;;;-0.80;98.00;;;;;;5057341;28;20025;-65
2022/12/09 09:01:47;;;;;;;33.58;20.40;;;-0.70;98.00;;;;;;5057396;28;20051;-65
2022/12/09 09:04:15;;;;;;;30.75;19.38;;;-0.70;98.00;;;;;;5058549;28;20021;-65
2022/12/09 09:06:43;;;;;;;30.35;20.00;;;-0.70;98.00;;;;;;5050213;28;20022;-65
2022/12/09 09:09:11;;;;;;;30.38;19.25;;;-0.60;98.00;;;;;;5070512;28;20034;-65
2022/12/09 09:11:37;;;;;;;39.05;23.08;;;-0.40;98.00;;;;;;5038349;28;20040;-65
2022/12/09 09:14:05;;;;;;;41.63;25.33;;;-0.30;98.00;;;;;;5036821;28;20469;-65
2022/12/09 09:16:31;;;;;;;34.00;21.02;;;-0.10;98.00;;;;;;5038738;28;20032;-65
2022/12/09 09:18:56;;;;;;;40.25;24.15;;;0.00;98.00;;;;;;5038310;28;20426;-65
2022/12/09 09:21:28;;;;;;;33.45;21.42;;;0.10;98.00;;;;;;5038240;28;20429;-66
2022/12/09 09:23:54;;;;;;;35.17;21.40;;;0.20;98.00;;;;;;5050677;28;20029;-65
2022/12/09 09:26:24;;;;;;;36.63;24.00;;;0.20;98.00;;;;;;5039240;28;20142;-65
2022/12/09 09:28:50;;;;;;;34.33;23.73;;;0.10;98.00;;;;;;5036572;28;20438;-65
2022/12/09 09:31:19;;;;;;;30.13;20.67;;;-0.10;98.00;;;;;;5038074;28;20037;-65
2022/12/09 09:33:45;;;;;;;30.35;21.88;;;-0.20;98.00;;;;;;5055671;28;20025;-65
2022/12/09 09:36:20;;;;;;;33.42;19.50;;;-0.20;98.00;;;;;;5051960;28;20481;-65
2022/12/09 09:38:47;;;;;;;28.15;19.30;;;-0.40;98.00;;;;;;5045420;28;20071;-65
2022/12/09 09:41:24;;;;;;;27.88;18.60;;;-0.50;98.00;;;;;;5046958;28;20482;-65
2022/12/09 09:43:51;;;;;;;28.77;17.98;;;-0.60;98.00;;;;;;5056477;28;20032;-65
2022/12/09 09:46:31;;;;;;;30.15;18.88;;;-0.70;98.00;;;;;;5052944;28;20267;-65
2022/12/09 09:48:58;;;;;;;32.92;20.60;;;-0.70;98.00;;;;;;5057509;28;20032;-65
2022/12/09 09:51:25;;;;;;;28.83;18.80;;;-0.70;98.00;;;;;;5038971;28;20037;-65
2022/12/09 09:53:51;;;;;;;35.33;20.15;;;-0.70;98.00;;;;;;5057353;28;20017;-65
2022/12/09 09:56:41;;;;;;;31.90;21.63;;;-0.70;98.00;;;;;;5040135;28;20366;-65
2022/12/09 09:59:32;;;;;;;34.47;21.10;;;-0.60;98.00;;;;;;5036214;28;20030;-65
2022/12/09 10:02:10;;;;;;;38.13;23.90;;;-0.50;98.00;;;;;;5037274;28;20037;-65
2022/12/09 10:04:44;;;;;;;42.08;27.75;;;-0.50;98.00;;;;;;5038261;28;20033;-65
2022/12/09 10:07:15;;;;;;;41.47;27.95;;;-0.60;98.00;;;;;;5056082;28;20044;-66
2022/12/09 10:10:07;;;;;;;35.60;23.35;;;-0.60;98.00;;;;;;5050631;28;20087;-66
2022/12/09 10:12:41;;;;;;;40.35;24.17;;;-0.40;98.00;;;;;;5009290;28;20069;-65
2022/12/09 10:15:14;;;;;;;37.95;23.80;;;-0.30;98.00;;;;;;5041521;28;20033;-65
2022/12/09 10:17:59;;;;;;;46.50;31.20;;;-0.30;98.00;;;;;;5054750;28;20083;-65
2022/12/09 10:20:27;;;;;;;39.75;26.90;;;-0.10;98.00;;;;;;5037174;28;20345;-65
2022/12/09 10:23:05;;;;;;;41.47;25.38;;;-0.10;98.00;;;;;;5038991;28;20419;-65
2022/12/09 10:25:35;;;;;;;32.70;21.95;;;-0.30;98.00;;;;;;5056500;28;20167;-65
2022/12/09 10:28:21;;;;;;;43.00;24.77;;;-0.40;98.00;;;;;;5052059;28;20025;-65
2022/12/09 10:30:48;;;;;;;40.10;25.48;;;-0.50;98.00;;;;;;5036797;28;20029;-65
2022/12/09 10:33:17;;;;;;;38.05;25.48;;;-0.50;98.00;;;;;;5040468;28;20032;-65
2022/12/09 10:35:43;;;;;;;32.75;22.20;;;-0.40;98.00;;;;;;5045297;28;20032;-65
2022/12/09 10:38:15;;;;;;;35.95;23.00;;;-0.40;98.00;;;;;;5035651;28;20025;-64
2022/12/09 10:40:44;;;;;;;30.88;20.98;;;-0.30;98.00;;;;;;5036532;28;20057;-64
2022/12/09 10:43:34;;;;;;;35.67;21.45;;;-0.30;98.00;;;;;;5053793;28;20029;-64
2022/12/09 10:46:10;;;;;;;39.00;24.27;;;-0.20;98.00;;;;;;5055447;28;20032;-64
2022/12/09 10:48:39;;;;;;;43.38;26.20;;;-0.20;98.00;;;;;;5036324;28;20025;-65
2022/12/09 10:51:11;;;;;;;35.53;23.30;;;-0.40;98.00;;;;;;5048741;28;20357;-66
2022/12/09 10:53:47;;;;;;;39.13;24.40;;;-0.60;98.00;;;;;;5056363;28;20084;-65
2022/12/09 10:56:21;;;;;;;39.03;24.90;;;-0.80;98.00;;;;;;5055292;28;20092;-64
2022/12/09 10:59:14;;;;;;;39.63;24.40;;;-1.00;98.00;;;;;;5055093;28;20085;-65
2022/12/09 11:02:06;;;;;;;40.83;24.88;;;-1.00;98.00;;;;;;5037767;28;20037;-64
2022/12/09 11:04:40;;;;;;;34.40;22.90;;;-1.10;98.00;;;;;;5012019;28;20038;-65
2022/12/09 11:07:06;;;;;;;29.80;21.02;;;-1.10;98.00;;;;;;5038926;28;20397;-64
2022/12/09 11:09:34;;;;;;;32.17;20.95;;;-1.00;98.00;;;;;;5055242;28;20017;-64
2022/12/09 11:12:02;;;;;;;33.85;21.02;;;-0.90;98.00;;;;;;5051037;28;20125;-64
2022/12/09 11:14:51;;;;;;;40.65;27.65;;;-0.70;98.00;;;;;;5034965;28;20075;-64
2022/12/09 11:17:23;;;;;;;71.35;41.80;;;-0.60;98.00;;;;;;5036014;28;20029;-65
2022/12/09 11:20:05;;;;;;;53.67;31.58;;;-0.70;98.00;;;;;;5037540;28;20500;-64
2022/12/09 11:22:41;;;;;;;39.17;25.77;;;-0.70;98.00;;;;;;5045590;28;20036;-64
2022/12/09 11:25:50;;;;;;;34.35;22.60;;;-0.70;98.00;;;;;;5036190;28;20034;-65
2022/12/09 11:28:16;;;;;;;34.72;23.60;;;-0.80;98.00;;;;;;5012816;28;20117;-64
2022/12/09 11:31:25;;;;;;;37.80;24.73;;;-0.80;98.00;;;;;;5042259;28;20120;-64
2022/12/09 11:33:57;;;;;;;38.50;24.80;;;-0.90;98.00;;;;;;5034923;28;20037;-65
2022/12/09 11:36:27;;;;;;;35.40;23.63;;;-0.80;98.00;;;;;;5035857;28;20034;-64
2022/12/09 11:39:07;;;;;;;39.50;25.00;;;-0.80;98.00;;;;;;5035569;28;20028;-64
2022/12/09 11:44:30;;;;;;;38.40;24.25;;;-1.00;98.00;;;;;;5052903;28;20074;-64
2022/12/09 11:46:58;;;;;;;35.88;23.35;;;-1.20;98.00;;;;;;5055746;28;20040;-64
2022/12/09 11:49:26;;;;;;;32.08;20.83;;;-1.10;98.00;;;;;;5053983;28;20074;-64
2022/12/09 11:52:04;;;;;;;33.75;21.85;;;-1.10;98.00;;;;;;5055512;28;20033;-65
2022/12/09 11:54:44;;;;;;;35.83;23.00;;;-0.90;98.00;;;;;;5037432;28;20033;-64
2022/12/09 11:57:37;;;;;;;36.03;24.45;;;-0.70;98.00;;;;;;5035403;28;20029;-64
2022/12/09 12:00:15;;;;;;;33.75;21.52;;;-0.70;98.00;;;;;;5043481;28;20064;-64
2022/12/09 12:02:59;;;;;;;32.97;21.63;;;-0.80;98.00;;;;;;5053326;28;20036;-64
2022/12/09 12:05:39;;;;;;;38.63;23.85;;;-0.80;98.00;;;;;;5035756;28;20029;-64
2022/12/09 12:08:25;;;;;;;33.33;22.73;;;-0.70;98.00;;;;;;5036183;28;20026;-65
2022/12/09 12:10:57;;;;;;;39.83;25.27;;;-0.60;98.00;;;;;;5049792;28;20040;-64
2022/12/09 12:13:32;;;;;;;42.72;26.63;;;-0.50;98.00;;;;;;5053043;28;20052;-65
2022/12/09 12:16:01;;;;;;;40.60;25.70;;;-0.50;98.00;;;;;;5037219;28;20061;-65
2022/12/09 12:18:30;;;;;;;39.10;23.58;;;-0.50;98.00;;;;;;5052750;28;20033;-65
2022/12/09 12:21:27;;;;;;;35.08;22.63;;;-0.50;98.00;;;;;;5058942;28;20028;-65
2022/12/09 12:24:19;;;;;;;36.97;24.88;;;-0.40;98.00;;;;;;5040249;28;20033;-65
2022/12/09 12:27:16;;;;;;;41.22;26.10;;;-0.20;98.00;;;;;;5038843;28;20049;-65
2022/12/09 12:29:44;;;;;;;41.88;27.50;;;-0.30;98.00;;;;;;5042537;28;20029;-65
2022/12/09 12:32:36;;;;;;;44.10;26.95;;;-0.40;98.00;;;;;;5046538;28;20189;-65
2022/12/09 12:35:09;;;;;;;37.13;24.45;;;-0.50;98.00;;;;;;5039163;28;20022;-65
2022/12/09 12:38:19;;;;;;;39.45;26.95;;;-0.50;98.00;;;;;;5043499;28;20049;-64
2022/12/09 12:41:22;;;;;;;33.53;23.45;;;-0.60;98.00;;;;;;5057927;28;20029;-65
2022/12/09 12:47:34;;;;;;;35.40;22.63;;;-0.70;98.00;;;;;;5039016;28;20029;-65
2022/12/09 12:50:08;;;;;;;42.60;25.17;;;-0.80;98.00;;;;;;5039154;28;20028;-65
2022/12/09 12:52:52;;;;;;;35.55;24.63;;;-0.80;98.00;;;;;;5048633;28;20035;-66